Welcome to Des Moines Iowa Weather. I am an independent private personal weather station on the Northwest Side of Des Moines, Iowa. Just East of Windsor Heights and just West of Glendale . This site is also mobile friendly.

There are no active watches, warnings or advisories


Visit our other weather sites:

Historical Data

Weather Station Setup



Weather Underground History page Text

Daily Summary for June 28, 2017 Units:  English    Metric   Both
« Previous Day
Next Day »
Daily Weekly Monthly Yearly Custom
  High: Low: Average:
Temperature: 85.8 °F 66.3 °F 73.5 °F
Dew Point: 74.0 °F 59.0 °F 67.2 °F
Humidity: 94 % 64 % 81 %
Wind Speed: 11.0 mph 0.0 mph 0.9 mph
Wind Gust: 14.0 mph - -
Wind:- - South
Pressure: 29.80 in 29.57 in -
Precipitation: 0.72 in    
Historical Graphs
 
 
Tabular Data for June 28, 2017
Time Temperature Dew Point Pressure Wind Wind Speed Wind Gust Humidity Rainfall Rate (Hourly)
00:01 70.6 °F 59.0 °F 29.80 in SSE 1.0 mph 5.0 mph 67 % 0.00 in
00:16 70.3 °F 59.0 °F 29.78 in SSE 1.0 mph 6.0 mph 68 % 0.00 in
00:31 69.9 °F 60.0 °F 29.75 in Calm   5.0 mph 70 % 0.00 in
00:46 69.7 °F 60.0 °F 29.75 in SSE 2.0 mph 4.0 mph 71 % 0.00 in
01:01 69.6 °F 60.0 °F 29.75 in Calm   6.0 mph 72 % 0.00 in
01:16 69.5 °F 61.0 °F 29.75 in South 1.0 mph 3.0 mph 73 % 0.00 in
01:31 69.4 °F 61.0 °F 29.75 in Calm   4.0 mph 75 % 0.00 in
01:46 69.4 °F 62.0 °F 29.74 in ESE 1.0 mph 4.0 mph 77 % 0.00 in
02:01 69.8 °F 63.0 °F 29.74 in Calm   7.0 mph 78 % 0.00 in
02:16 70.2 °F 63.0 °F 29.74 in SSW 1.0 mph 8.0 mph 78 % 0.00 in
02:31 70.6 °F 63.0 °F 29.71 in South 2.0 mph 7.0 mph 78 % 0.00 in
02:46 70.8 °F 64.0 °F 29.70 in West 6.0 mph 6.0 mph 78 % 0.00 in
03:01 71.1 °F 64.0 °F 29.71 in SSW 2.0 mph 6.0 mph 78 % 0.00 in
03:16 71.3 °F 64.0 °F 29.71 in SW 1.0 mph 8.0 mph 78 % 0.00 in
03:31 71.8 °F 65.0 °F 29.72 in Calm   8.0 mph 78 % 0.00 in
03:47 72.3 °F 65.0 °F 29.71 in South 5.0 mph 9.0 mph 77 % 0.00 in
04:01 72.8 °F 65.0 °F 29.74 in Calm   5.0 mph 76 % 0.00 in
04:16 72.8 °F 66.0 °F 29.73 in NNW 2.0 mph 9.0 mph 80 % 0.01 in
04:31 71.6 °F 67.0 °F 29.75 in Calm   3.0 mph 84 % 0.04 in
04:46 70.6 °F 67.0 °F 29.78 in Calm   3.0 mph 87 % 0.04 in
05:01 69.9 °F 67.0 °F 29.77 in Calm   2.0 mph 89 % 0.07 in
05:16 69.5 °F 67.0 °F 29.76 in Calm   2.0 mph 90 % 0.07 in
05:31 69.1 °F 66.0 °F 29.75 in Calm   3.0 mph 91 % 0.04 in
05:46 68.6 °F 66.0 °F 29.74 in Calm   3.0 mph 91 % 0.05 in
06:01 68.2 °F 66.0 °F 29.75 in Calm     91 % 0.03 in
06:16 67.8 °F 66.0 °F 29.71 in Calm   2.0 mph 92 % 0.06 in
06:31 67.4 °F 65.0 °F 29.71 in Calm   4.0 mph 92 % 0.10 in
06:47 67.0 °F 65.0 °F 29.70 in Calm   4.0 mph 92 % 0.10 in
07:02 66.7 °F 65.0 °F 29.70 in Calm   2.0 mph 93 % 0.09 in
07:17 66.4 °F 64.0 °F 29.67 in South 1.0 mph 1.0 mph 93 % 0.05 in
07:32 66.3 °F 64.0 °F 29.66 in Calm   2.0 mph 93 % 0.01 in
07:47 66.3 °F 64.0 °F 29.66 in Calm     93 % 0.00 in
08:02 66.4 °F 65.0 °F 29.67 in Calm   1.0 mph 94 % 0.00 in
08:17 66.5 °F 65.0 °F 29.66 in SW 2.0 mph 4.0 mph 94 % 0.00 in
08:32 66.4 °F 64.0 °F 29.64 in SW 2.0 mph 3.0 mph 93 % 0.00 in
08:47 66.7 °F 65.0 °F 29.64 in Calm   5.0 mph 93 % 0.00 in
09:02 67.4 °F 65.0 °F 29.65 in Calm   5.0 mph 92 % 0.00 in
09:17 68.2 °F 66.0 °F 29.66 in Calm   4.0 mph 91 % 0.00 in
09:32 69.8 °F 66.0 °F 29.66 in SE 2.0 mph 8.0 mph 88 % 0.00 in
09:47 72.0 °F 66.0 °F 29.66 in NNE 1.0 mph 7.0 mph 81 % 0.00 in
10:02 73.3 °F 66.0 °F 29.65 in ESE 1.0 mph 7.0 mph 79 % 0.00 in
10:17 74.6 °F 66.0 °F 29.65 in SSW 2.0 mph 5.0 mph 74 % 0.00 in
10:32 75.6 °F 66.0 °F 29.65 in East 1.0 mph 9.0 mph 73 % 0.00 in
10:47 77.1 °F 68.0 °F 29.64 in ENE 2.0 mph 9.0 mph 73 % 0.00 in
11:03 78.5 °F 69.0 °F 29.64 in South 1.0 mph 14.0 mph 72 % 0.00 in
11:17 79.6 °F 70.0 °F 29.65 in SSW 11.0 mph 12.0 mph 73 % 0.01 in
11:33 80.7 °F 70.0 °F 29.64 in WNW 7.0 mph 10.0 mph 70 % 0.01 in
11:48 81.4 °F 71.0 °F 29.64 in NE 3.0 mph 12.0 mph 70 % 0.01 in
12:03 82.5 °F 71.0 °F 29.63 in Calm   9.0 mph 69 % 0.01 in
12:18 83.0 °F 72.0 °F 29.63 in Calm   9.0 mph 69 % 0.00 in
12:33 83.9 °F 72.0 °F 29.63 in SE 3.0 mph 5.0 mph 67 % 0.00 in
12:48 84.2 °F 73.0 °F 29.62 in Calm   10.0 mph 68 % 0.00 in
13:04 85.0 °F 72.0 °F 29.63 in SSE 4.0 mph 5.0 mph 66 % 0.00 in
13:18 84.8 °F 71.0 °F 29.64 in SW 3.0 mph 10.0 mph 64 % 0.00 in
13:33 85.1 °F 73.0 °F 29.64 in NW 2.0 mph 6.0 mph 67 % 0.00 in
13:48 85.6 °F 73.0 °F 29.63 in NE 4.0 mph 6.0 mph 66 % 0.00 in
14:03 85.8 °F 73.0 °F 29.63 in Calm   12.0 mph 66 % 0.00 in
14:18 85.6 °F 73.0 °F 29.63 in Calm   9.0 mph 65 % 0.00 in
14:33 85.0 °F 72.0 °F 29.63 in Calm   8.0 mph 66 % 0.00 in
14:48 85.7 °F 74.0 °F 29.62 in SSW 2.0 mph 7.0 mph 67 % 0.00 in
15:03 85.5 °F 73.0 °F 29.62 in SW 7.0 mph 8.0 mph 67 % 0.00 in
15:18 84.5 °F 73.0 °F 29.62 in Calm   6.0 mph 68 % 0.00 in
15:33 84.2 °F 73.0 °F 29.62 in Calm   7.0 mph 69 % 0.00 in
15:48 84.5 °F 74.0 °F 29.61 in Calm   10.0 mph 70 % 0.00 in
16:03 84.3 °F 73.0 °F 29.60 in SSW 1.0 mph 7.0 mph 69 % 0.00 in
16:18 83.8 °F 73.0 °F 29.59 in NNE 1.0 mph 9.0 mph 69 % 0.00 in
16:33 83.0 °F 73.0 °F 29.58 in South 1.0 mph 6.0 mph 71 % 0.00 in
16:48 82.4 °F 73.0 °F 29.58 in Calm   4.0 mph 74 % 0.00 in
17:03 80.5 °F 74.0 °F 29.59 in Calm   6.0 mph 80 % 0.09 in
17:18 77.8 °F 72.0 °F 29.59 in Calm   3.0 mph 82 % 0.25 in
17:33 73.9 °F 69.0 °F 29.57 in Calm   8.0 mph 83 % 0.51 in
17:48 72.6 °F 68.0 °F 29.60 in Calm   2.0 mph 86 % 0.51 in
18:03 71.5 °F 68.0 °F 29.59 in Calm   3.0 mph 88 % 0.42 in
18:18 71.0 °F 68.0 °F 29.60 in Calm   4.0 mph 90 % 0.26 in
18:33 71.4 °F 69.0 °F 29.60 in Calm   3.0 mph 92 % 0.01 in
18:48 71.0 °F 69.0 °F 29.59 in Calm   2.0 mph 92 % 0.01 in
19:03 70.8 °F 68.0 °F 29.59 in Calm   1.0 mph 92 % 0.00 in
19:18 70.6 °F 68.0 °F 29.59 in Calm     91 % 0.00 in
19:33 70.6 °F 68.0 °F 29.58 in Calm     92 % 0.00 in
19:48 70.8 °F 68.0 °F 29.58 in Calm     92 % 0.00 in
20:03 70.9 °F 69.0 °F 29.59 in Calm   5.0 mph 92 % 0.00 in
20:18 70.5 °F 68.0 °F 29.59 in Calm     91 % 0.00 in
20:33 70.0 °F 67.0 °F 29.59 in Calm   1.0 mph 90 % 0.00 in
20:48 69.6 °F 66.0 °F 29.59 in Calm   1.0 mph 89 % 0.00 in
21:03 69.3 °F 66.0 °F 29.60 in Calm   1.0 mph 89 % 0.00 in
21:18 69.2 °F 66.0 °F 29.61 in Calm     89 % 0.00 in
21:33 68.9 °F 66.0 °F 29.61 in Calm     89 % 0.00 in
21:48 68.6 °F 65.0 °F 29.62 in Calm   1.0 mph 89 % 0.00 in
22:04 68.5 °F 66.0 °F 29.62 in Calm   1.0 mph 90 % 0.00 in
22:18 68.4 °F 65.0 °F 29.62 in Calm     90 % 0.00 in
22:33 68.3 °F 65.0 °F 29.62 in Calm     90 % 0.00 in
22:48 68.2 °F 66.0 °F 29.62 in Calm     91 % 0.00 in
23:03 68.1 °F 65.0 °F 29.63 in Calm   1.0 mph 91 % 0.00 in
23:19 68.1 °F 65.0 °F 29.63 in Calm   2.0 mph 91 % 0.00 in
23:33 68.0 °F 65.0 °F 29.64 in Calm     91 % 0.00 in
23:48 67.9 °F 66.0 °F 29.64 in Calm     92 % 0.00 in
Des Moines Weather and Climate
Compliments of Weather Underground - 3 mb

Script developed by  Jim McMurry - jmcmurry@mwt.net Adapted for the template by  Wim van der Kuil - Leuven-Template.eu

You find our weather info also at:

Weather Underground

Equipment we use:

Weather-station
Davis VP2 Plus

Weather-program
Davis Weatherlink.Com

Weather-server
iMac (Retina 4K, 21.5-inch, Late 2015)

Provider
Hostmonster.com

Davis VP2 Plus

Davis Weatherlink.Com

iMac (Retina 4K, 21.5-inch, Late 2015)

Hostmonster.com